createdAt,value
2023-02-24T00:02:15.330Z,32.97
2023-02-24T00:05:24.003Z,32.15
2023-02-24T00:08:30.709Z,30.76
2023-02-24T00:11:36.893Z,28.49
2023-02-24T00:14:47.883Z,27.69
2023-02-24T00:17:53.732Z,28.56
2023-02-24T00:21:08.558Z,27.97
2023-02-24T00:24:16.028Z,26.06
2023-02-24T00:27:22.751Z,26.62
2023-02-24T00:30:29.963Z,28.03
2023-02-24T00:33:39.619Z,27.14
2023-02-24T00:36:48.071Z,30.46
2023-02-24T00:39:58.770Z,30.45
2023-02-24T00:43:04.613Z,28.38
2023-02-24T00:46:12.676Z,26.96
2023-02-24T00:49:24.697Z,26.10
2023-02-24T00:52:34.648Z,27.18
2023-02-24T00:55:40.553Z,28.74
2023-02-24T00:58:48.228Z,31.52
2023-02-24T01:01:56.024Z,30.63
2023-02-24T01:05:05.277Z,29.66
2023-02-24T01:08:17.713Z,30.04
2023-02-24T01:11:41.974Z,29.48
2023-02-24T01:14:50.642Z,29.00
2023-02-24T01:17:57.422Z,29.19
2023-02-24T01:21:05.174Z,28.45
2023-02-24T01:24:18.507Z,26.92
2023-02-24T01:27:24.748Z,26.86
2023-02-24T01:30:31.699Z,25.60
2023-02-24T01:33:39.530Z,26.39
2023-02-24T01:36:47.665Z,26.74
2023-02-24T01:39:56.180Z,27.96
2023-02-24T01:43:08.881Z,28.32
2023-02-24T01:46:15.150Z,27.95
2023-02-24T01:49:33.273Z,27.15
2023-02-24T01:52:42.209Z,27.08
2023-02-24T01:55:56.823Z,27.13
2023-02-24T01:59:14.395Z,28.93
2023-02-24T02:02:27.225Z,27.00
2023-02-24T02:05:33.456Z,26.40
2023-02-24T02:08:45.302Z,26.06
2023-02-24T02:11:53.841Z,25.66
2023-02-24T02:15:13.319Z,25.70
2023-02-24T02:18:41.530Z,25.92
2023-02-24T02:22:34.012Z,26.18
2023-02-24T02:26:11.785Z,25.83
2023-02-24T02:29:52.061Z,25.88
2023-02-24T02:34:05.646Z,25.46
2023-02-24T02:37:25.386Z,24.31
2023-02-24T02:40:45.992Z,22.80
2023-02-24T02:44:07.942Z,21.99
2023-02-24T02:47:26.376Z,21.21
2023-02-24T02:50:46.201Z,21.68
2023-02-24T02:54:05.266Z,21.57
2023-02-24T02:57:24.033Z,21.46
2023-02-24T03:00:51.594Z,21.67
2023-02-24T03:04:08.623Z,22.46
2023-02-24T03:07:23.250Z,21.69
2023-02-24T03:10:34.552Z,22.37
2023-02-24T03:13:49.845Z,23.05
2023-02-24T03:16:59.792Z,23.84
2023-02-24T03:20:26.432Z,23.64
2023-02-24T03:23:37.807Z,25.37
2023-02-24T03:26:52.840Z,26.90
2023-02-24T03:30:10.020Z,26.04
2023-02-24T03:33:29.965Z,27.32
2023-02-24T03:36:36.992Z,28.52
2023-02-24T03:39:51.518Z,28.15
2023-02-24T03:43:09.201Z,26.81
2023-02-24T03:46:18.844Z,25.15
2023-02-24T03:49:26.890Z,25.05
2023-02-24T03:52:49.344Z,25.01
2023-02-24T03:56:13.421Z,24.73
2023-02-24T03:59:44.032Z,25.50
2023-02-24T04:03:01.236Z,25.10
2023-02-24T04:06:23.843Z,26.10
2023-02-24T04:09:42.607Z,26.63
2023-02-24T04:13:11.564Z,26.70
2023-02-24T04:16:29.143Z,26.42
2023-02-24T04:19:43.075Z,28.14
2023-02-24T04:22:58.206Z,26.48
2023-02-24T04:26:06.646Z,26.72
2023-02-24T04:29:23.246Z,27.65
2023-02-24T04:32:34.533Z,28.97
2023-02-24T04:35:41.549Z,30.41
2023-02-24T04:38:48.944Z,31.86
2023-02-24T04:42:08.317Z,36.30
2023-02-24T04:45:30.330Z,36.06
2023-02-24T04:48:36.308Z,37.54
2023-02-24T04:51:45.121Z,38.41
2023-02-24T04:54:51.058Z,39.31
2023-02-24T04:57:58.259Z,35.97
2023-02-24T05:01:13.205Z,36.85
2023-02-24T05:04:20.938Z,37.41
2023-02-24T05:07:29.281Z,37.12
2023-02-24T05:10:42.480Z,37.20
2023-02-24T05:13:49.028Z,37.30
2023-02-24T05:17:00.625Z,35.43
2023-02-24T05:20:20.692Z,34.47
2023-02-24T05:23:29.331Z,32.68
2023-02-24T05:26:37.652Z,32.19
2023-02-24T05:29:44.618Z,31.37
2023-02-24T05:32:54.636Z,30.91
2023-02-24T05:36:08.776Z,30.41
2023-02-24T05:39:19.374Z,29.74
2023-02-24T05:42:26.081Z,29.82
2023-02-24T05:45:31.929Z,29.62
2023-02-24T05:48:41.418Z,30.29
2023-02-24T05:51:57.866Z,29.61
2023-02-24T05:55:06.896Z,29.09
2023-02-24T05:58:12.843Z,29.38
2023-02-24T06:01:31.346Z,28.26
2023-02-24T06:04:54.290Z,28.32
2023-02-24T06:08:11.868Z,29.11
2023-02-24T06:11:19.503Z,29.22
2023-02-24T06:14:26.319Z,30.50
2023-02-24T06:17:32.964Z,30.22
2023-02-24T06:20:42.300Z,29.01
2023-02-24T06:23:48.526Z,30.00
2023-02-24T06:27:08.341Z,31.29
2023-02-24T06:30:18.733Z,36.25
2023-02-24T06:33:27.178Z,35.89
2023-02-24T06:36:35.788Z,35.59
2023-02-24T06:39:43.229Z,39.81
2023-02-24T06:42:54.204Z,39.62
2023-02-24T06:46:01.612Z,35.70
2023-02-24T06:49:12.884Z,36.53
2023-02-24T06:52:22.197Z,38.46
2023-02-24T06:55:30.801Z,37.83
2023-02-24T06:58:39.335Z,38.75
2023-02-24T07:01:49.384Z,42.41
2023-02-24T07:04:58.780Z,42.08
2023-02-24T07:08:08.725Z,43.25
2023-02-24T07:11:17.845Z,44.71
2023-02-24T07:14:27.327Z,43.86
2023-02-24T07:17:34.095Z,41.51
2023-02-24T07:20:52.355Z,40.58
2023-02-24T07:24:05.043Z,40.49
2023-02-24T07:27:25.813Z,38.30
2023-02-24T07:30:33.591Z,38.02
2023-02-24T07:33:40.455Z,39.31
2023-02-24T07:36:52.039Z,37.93
2023-02-24T07:40:00.551Z,39.24
2023-02-24T07:43:07.747Z,39.04
2023-02-24T07:46:19.445Z,40.70
2023-02-24T07:49:30.407Z,39.73
2023-02-24T07:52:37.418Z,37.98
2023-02-24T07:55:53.970Z,36.44
2023-02-24T07:59:08.145Z,36.01
2023-02-24T08:02:14.854Z,35.40
2023-02-24T08:05:21.811Z,37.65
2023-02-24T08:08:33.604Z,40.39
2023-02-24T08:11:52.598Z,37.64
2023-02-24T08:15:00.410Z,40.45
2023-02-24T08:18:06.930Z,40.73
2023-02-24T08:21:14.401Z,39.82
2023-02-24T08:24:25.317Z,40.74
2023-02-24T08:27:39.183Z,40.32
2023-02-24T08:30:47.963Z,39.19
2023-02-24T08:33:56.538Z,37.14
2023-02-24T08:37:02.340Z,39.28
2023-02-24T08:40:34.302Z,39.30
2023-02-24T08:43:46.608Z,39.37
2023-02-24T08:46:53.870Z,39.22
2023-02-24T08:50:05.146Z,38.64
2023-02-24T08:53:19.370Z,40.00
2023-02-24T08:56:29.230Z,39.65
2023-02-24T08:59:50.217Z,42.49
2023-02-24T09:02:56.420Z,41.82
2023-02-24T09:06:08.968Z,40.95
2023-02-24T09:09:22.824Z,42.74
2023-02-24T09:12:34.785Z,42.99
2023-02-24T09:15:44.742Z,43.73
2023-02-24T09:19:10.905Z,46.26
2023-02-24T09:22:32.216Z,46.79
2023-02-24T09:25:49.840Z,41.69
2023-02-24T09:28:58.565Z,41.98
2023-02-24T09:32:13.816Z,46.19
2023-02-24T09:35:26.229Z,46.67
2023-02-24T09:38:46.342Z,48.67
2023-02-24T09:42:19.535Z,45.07
2023-02-24T09:45:33.753Z,45.09
2023-02-24T09:49:12.402Z,42.88
2023-02-24T09:52:38.279Z,42.62
2023-02-24T09:56:08.916Z,45.89
2023-02-24T09:59:33.415Z,46.36
2023-02-24T10:03:00.442Z,44.74
2023-02-24T10:06:23.466Z,42.53
2023-02-24T10:09:38.852Z,40.91
2023-02-24T10:12:45.933Z,39.92
2023-02-24T10:16:12.284Z,39.69
2023-02-24T10:19:34.379Z,37.02
2023-02-24T10:22:56.056Z,38.00
2023-02-24T10:26:08.981Z,37.93
2023-02-24T10:29:36.242Z,36.51
2023-02-24T10:32:59.111Z,35.85
2023-02-24T10:36:13.262Z,34.25
2023-02-24T10:39:26.385Z,35.07
2023-02-24T10:42:37.801Z,36.10
2023-02-24T10:45:46.422Z,35.82
2023-02-24T10:49:03.480Z,34.35
2023-02-24T10:52:11.373Z,34.76
2023-02-24T10:55:52.775Z,31.90
2023-02-24T10:59:36.732Z,30.96
2023-02-24T11:03:07.414Z,31.64
2023-02-24T11:06:42.537Z,32.79
2023-02-24T11:09:52.863Z,33.26
2023-02-24T11:13:16.971Z,31.36
2023-02-24T11:16:36.286Z,31.41
2023-02-24T11:19:48.351Z,32.45
2023-02-24T11:22:58.025Z,33.37
2023-02-24T11:26:12.961Z,34.27
2023-02-24T11:29:54.853Z,34.42
2023-02-24T11:33:26.459Z,32.72
2023-02-24T11:36:49.729Z,36.28
2023-02-24T11:40:04.089Z,34.26
2023-02-24T11:43:21.599Z,32.47
2023-02-24T11:46:45.274Z,31.10
2023-02-24T11:50:06.068Z,35.67
2023-02-24T11:53:41.362Z,35.00
2023-02-24T11:56:56.206Z,32.51
2023-02-24T12:00:20.368Z,33.82
2023-02-24T12:03:43.104Z,37.57
2023-02-24T12:07:02.737Z,36.75
2023-02-24T12:10:22.779Z,34.48
2023-02-24T12:13:41.803Z,38.53
2023-02-24T12:16:59.615Z,38.60
2023-02-24T12:20:23.460Z,35.97
2023-02-24T12:23:37.696Z,36.53
2023-02-24T12:27:01.516Z,39.86
2023-02-24T12:30:57.877Z,44.81
2023-02-24T12:34:15.774Z,41.23
2023-02-24T12:37:48.582Z,42.38
2023-02-24T12:41:15.470Z,47.38
2023-02-24T12:44:39.978Z,48.70
2023-02-24T12:48:07.603Z,41.25
2023-02-24T12:51:29.955Z,38.30
2023-02-24T12:54:50.469Z,38.24
2023-02-24T12:58:14.158Z,38.28
2023-02-24T13:01:33.448Z,39.43
2023-02-24T13:04:56.413Z,41.28
2023-02-24T13:08:27.196Z,39.52
2023-02-24T13:11:52.948Z,39.44
2023-02-24T13:14:59.848Z,40.91
2023-02-24T13:18:06.696Z,41.86
2023-02-24T13:21:25.254Z,39.88
2023-02-24T13:24:32.784Z,41.86
2023-02-24T13:27:45.976Z,41.95
2023-02-24T13:31:04.171Z,49.78
2023-02-24T13:34:17.981Z,39.82
2023-02-24T13:37:36.411Z,41.77
2023-02-24T13:40:42.365Z,40.10
2023-02-24T13:44:02.571Z,40.34
2023-02-24T13:47:57.451Z,40.29
2023-02-24T13:51:53.529Z,40.73
2023-02-24T13:55:33.884Z,41.76
2023-02-24T13:59:12.792Z,40.17
2023-02-24T14:02:23.379Z,38.75
2023-02-24T14:05:37.414Z,39.11
2023-02-24T14:08:54.353Z,39.93
2023-02-24T14:12:07.893Z,40.03
2023-02-24T14:15:31.558Z,38.21
2023-02-24T14:18:39.620Z,44.18
2023-02-24T14:21:55.272Z,44.55
2023-02-24T14:25:05.730Z,41.46
2023-02-24T14:28:27.449Z,42.14
2023-02-24T14:31:37.130Z,45.71
2023-02-24T14:34:43.659Z,43.86
2023-02-24T14:37:50.621Z,45.84
2023-02-24T14:40:56.508Z,45.46
2023-02-24T14:44:19.526Z,42.27
2023-02-24T14:47:33.613Z,40.78
2023-02-24T14:50:41.001Z,38.95
2023-02-24T14:53:54.844Z,44.07
2023-02-24T14:57:04.525Z,39.07
2023-02-24T15:00:24.381Z,35.30
2023-02-24T15:03:40.790Z,29.66
2023-02-24T15:06:47.803Z,26.38
2023-02-24T15:09:56.870Z,32.11
2023-02-24T15:13:13.854Z,31.52
2023-02-24T15:16:28.955Z,33.59
2023-02-24T15:19:45.997Z,35.19
2023-02-24T15:22:54.043Z,29.04
2023-02-24T15:26:00.132Z,25.03
2023-02-24T15:29:18.338Z,24.40
2023-02-24T15:32:30.789Z,23.94
2023-02-24T15:35:54.063Z,25.60
2023-02-24T15:39:05.874Z,27.50
2023-02-24T15:42:28.673Z,28.82
2023-02-24T15:45:38.794Z,29.77
2023-02-24T15:48:47.883Z,29.94
2023-02-24T15:52:04.533Z,33.36
2023-02-24T15:55:17.982Z,27.75
2023-02-24T15:58:26.484Z,27.79
2023-02-24T16:01:34.130Z,30.14
2023-02-24T16:04:48.937Z,27.84
2023-02-24T16:07:58.565Z,28.24
2023-02-24T16:11:04.550Z,29.99
2023-02-24T16:14:19.862Z,28.67
2023-02-24T16:17:36.040Z,30.43
2023-02-24T16:20:42.822Z,31.89
2023-02-24T16:23:51.513Z,31.83
2023-02-24T16:26:58.365Z,33.24
2023-02-24T16:30:04.794Z,37.69
2023-02-24T16:33:17.676Z,38.97
2023-02-24T16:36:25.622Z,39.92
2023-02-24T16:39:35.168Z,40.32
2023-02-24T16:42:41.068Z,41.69
2023-02-24T16:45:49.191Z,40.42
2023-02-24T16:48:56.838Z,40.12
2023-02-24T16:52:03.696Z,36.33
2023-02-24T16:55:16.031Z,40.25
2023-02-24T16:58:23.632Z,38.20
2023-02-24T17:01:29.781Z,38.52
2023-02-24T17:04:36.599Z,34.81
2023-02-24T17:07:42.801Z,37.70
2023-02-24T17:10:54.473Z,33.33
2023-02-24T17:14:00.426Z,20.56
2023-02-24T17:17:07.532Z,18.64
2023-02-24T17:20:17.239Z,13.51
2023-02-24T17:23:24.776Z,9.28
2023-02-24T17:26:33.674Z,11.85
2023-02-24T17:29:40.541Z,12.42
2023-02-24T17:32:46.761Z,15.11
2023-02-24T17:35:53.589Z,20.12
2023-02-24T17:38:59.606Z,21.06
2023-02-24T17:42:15.686Z,20.83
2023-02-24T17:45:22.190Z,21.29
2023-02-24T17:48:28.988Z,44.50
2023-02-24T17:51:38.738Z,57.64
2023-02-24T17:54:45.598Z,63.45
2023-02-24T17:57:57.029Z,63.58
2023-02-24T18:01:24.685Z,59.20
2023-02-24T18:04:30.613Z,61.43
2023-02-24T18:07:37.734Z,55.55
2023-02-24T18:10:51.894Z,53.08
2023-02-24T18:14:05.114Z,50.74
2023-02-24T18:17:11.106Z,50.78
2023-02-24T18:20:37.935Z,50.67
2023-02-24T18:23:48.884Z,48.19
2023-02-24T18:26:55.769Z,50.02
2023-02-24T18:30:10.354Z,47.13
2023-02-24T18:33:28.338Z,38.40
2023-02-24T18:36:34.331Z,37.86
2023-02-24T18:39:41.264Z,38.48
2023-02-24T18:42:47.226Z,32.25
2023-02-24T18:46:00.178Z,29.03
2023-02-24T18:49:09.071Z,28.45
2023-02-24T18:52:15.829Z,28.82
2023-02-24T18:55:22.612Z,28.04
2023-02-24T18:58:29.368Z,27.74
2023-02-24T19:01:41.854Z,29.42
2023-02-24T19:04:53.524Z,27.50
2023-02-24T19:08:00.052Z,27.97
2023-02-24T19:11:12.606Z,29.45
2023-02-24T19:14:20.180Z,28.58
2023-02-24T19:17:29.678Z,28.10
2023-02-24T19:20:35.999Z,28.00
2023-02-24T19:23:42.831Z,28.64
2023-02-24T19:26:56.626Z,27.80
2023-02-24T19:30:08.796Z,27.75
2023-02-24T19:33:17.768Z,28.32
2023-02-24T19:36:26.650Z,27.86
2023-02-24T19:39:33.173Z,28.88
2023-02-24T19:42:40.758Z,29.34
2023-02-24T19:45:47.401Z,28.79
2023-02-24T19:48:59.193Z,28.65
2023-02-24T19:52:05.281Z,28.96
2023-02-24T19:55:14.814Z,29.91
2023-02-24T19:58:20.989Z,29.08
2023-02-24T20:01:30.565Z,28.10
2023-02-24T20:04:39.214Z,30.32
2023-02-24T20:07:46.397Z,30.25
2023-02-24T20:11:02.798Z,31.41
2023-02-24T20:14:11.518Z,34.94
2023-02-24T20:17:17.823Z,39.81
2023-02-24T20:20:27.496Z,41.11
2023-02-24T20:23:34.809Z,40.20
2023-02-24T20:26:46.515Z,41.11
2023-02-24T20:29:53.746Z,39.04
2023-02-24T20:33:00.713Z,36.92
2023-02-24T20:36:21.188Z,39.08
2023-02-24T20:39:28.133Z,38.93
2023-02-24T20:42:34.148Z,41.18
2023-02-24T20:45:49.684Z,40.23
2023-02-24T20:49:00.682Z,39.41
2023-02-24T20:52:13.073Z,38.60
2023-02-24T20:55:19.303Z,37.99
2023-02-24T20:58:30.697Z,36.59
2023-02-24T21:01:45.081Z,37.35
2023-02-24T21:04:53.278Z,31.67
2023-02-24T21:08:08.457Z,27.60
2023-02-24T21:11:18.534Z,30.47
2023-02-24T21:14:25.047Z,33.85
2023-02-24T21:17:34.407Z,32.46
2023-02-24T21:20:41.207Z,33.00
2023-02-24T21:23:51.644Z,32.29
2023-02-24T21:26:57.540Z,24.36
2023-02-24T21:30:04.200Z,26.23
2023-02-24T21:33:14.420Z,28.49
2023-02-24T21:36:24.551Z,27.37
2023-02-24T21:39:33.304Z,23.55
2023-02-24T21:42:42.078Z,23.08
2023-02-24T21:45:50.715Z,34.10
2023-02-24T21:48:58.166Z,33.04
2023-02-24T21:52:11.667Z,31.96
2023-02-24T21:55:23.641Z,32.44
2023-02-24T21:58:29.458Z,32.75
2023-02-24T22:01:39.549Z,31.01
2023-02-24T22:04:47.023Z,28.96
2023-02-24T22:07:58.435Z,24.93
2023-02-24T22:11:07.088Z,23.76
2023-02-24T22:14:17.448Z,23.71
2023-02-24T22:17:23.382Z,23.37
2023-02-24T22:20:32.368Z,22.90
2023-02-24T22:23:39.400Z,23.81
2023-02-24T22:26:49.956Z,25.39
2023-02-24T22:29:56.267Z,27.98
2023-02-24T22:33:03.117Z,27.03
2023-02-24T22:36:12.592Z,28.14
2023-02-24T22:39:19.346Z,27.21
2023-02-24T22:42:28.818Z,30.31
2023-02-24T22:45:35.614Z,28.09
2023-02-24T22:48:44.907Z,30.50
2023-02-24T22:51:53.453Z,30.22
2023-02-24T22:54:59.416Z,28.62
2023-02-24T22:58:10.564Z,28.89
2023-02-24T23:01:20.578Z,28.61
2023-02-24T23:04:29.378Z,27.79
2023-02-24T23:07:35.352Z,25.72
2023-02-24T23:10:42.119Z,24.89
2023-02-24T23:13:54.813Z,22.54
2023-02-24T23:17:08.672Z,24.67
2023-02-24T23:20:23.696Z,25.95
2023-02-24T23:23:34.020Z,24.85
2023-02-24T23:26:47.507Z,23.55
2023-02-24T23:29:56.823Z,22.84
2023-02-24T23:33:06.340Z,22.47
2023-02-24T23:36:18.888Z,24.81
2023-02-24T23:39:25.130Z,29.24
2023-02-24T23:42:32.211Z,27.01
2023-02-24T23:45:44.584Z,27.75
2023-02-24T23:48:55.438Z,27.18
2023-02-24T23:52:02.025Z,27.34
2023-02-24T23:55:09.765Z,27.71
2023-02-24T23:58:16.865Z,27.99
